createdAt,value
2019-02-08T00:00:10.827Z,0.00
2019-02-08T00:01:10.778Z,0.00
2019-02-08T00:02:10.769Z,0.00
2019-02-08T00:03:10.851Z,0.00
2019-02-08T00:04:10.744Z,0.00
2019-02-08T00:05:10.723Z,0.00
2019-02-08T00:06:10.746Z,0.00
2019-02-08T00:07:10.794Z,0.00
2019-02-08T00:08:10.767Z,0.00
2019-02-08T00:09:10.699Z,0.00
2019-02-08T00:10:10.680Z,0.00
2019-02-08T00:11:10.746Z,0.00
2019-02-08T00:12:10.768Z,0.00
2019-02-08T00:13:10.631Z,0.00
2019-02-08T00:14:10.640Z,0.00
2019-02-08T00:15:10.598Z,0.00
2019-02-08T00:16:10.615Z,0.00
2019-02-08T00:17:10.722Z,0.00
2019-02-08T00:18:10.665Z,0.00
2019-02-08T00:19:10.605Z,0.00
2019-02-08T00:20:10.573Z,0.00
2019-02-08T00:21:10.636Z,0.00
2019-02-08T00:22:10.553Z,0.00
2019-02-08T00:23:10.605Z,0.00
2019-02-08T00:24:10.636Z,0.00
2019-02-08T00:25:10.584Z,0.00
2019-02-08T00:26:10.593Z,0.00
2019-02-08T00:27:10.564Z,0.00
2019-02-08T00:28:10.555Z,0.00
2019-02-08T00:29:10.451Z,0.00
2019-02-08T00:30:10.571Z,0.00
2019-02-08T00:31:10.530Z,0.00
2019-02-08T00:32:10.510Z,0.00
2019-02-08T00:33:10.490Z,0.00
2019-02-08T00:34:10.485Z,0.00
2019-02-08T00:35:10.468Z,0.00
2019-02-08T00:36:10.506Z,0.00
2019-02-08T00:37:10.458Z,0.00
2019-02-08T00:38:10.450Z,0.00
2019-02-08T00:39:10.353Z,0.00
2019-02-08T00:40:10.422Z,0.00
2019-02-08T00:41:10.414Z,0.00
2019-02-08T00:42:10.423Z,0.00
2019-02-08T00:43:10.387Z,0.00
2019-02-08T00:44:10.376Z,0.00
2019-02-08T00:45:10.286Z,0.00
2019-02-08T00:46:10.301Z,0.00
2019-02-08T00:47:10.301Z,0.00
2019-02-08T00:48:10.268Z,0.00
2019-02-08T00:49:10.234Z,0.00
2019-02-08T00:50:10.305Z,0.00
2019-02-08T00:51:10.220Z,0.00
2019-02-08T00:52:10.211Z,0.00
2019-02-08T00:53:10.335Z,0.00
2019-02-08T00:54:10.268Z,0.00
2019-02-08T00:55:10.181Z,0.00
2019-02-08T00:56:10.238Z,0.00
2019-02-08T00:57:10.165Z,0.00
2019-02-08T00:58:10.238Z,0.00
2019-02-08T00:59:10.236Z,0.00
2019-02-08T01:00:10.123Z,0.00
2019-02-08T01:01:10.208Z,0.00
2019-02-08T01:02:10.102Z,0.00
2019-02-08T01:03:10.186Z,0.00
2019-02-08T01:04:10.116Z,0.00
2019-02-08T01:05:10.143Z,0.00
2019-02-08T01:06:10.135Z,0.00
2019-02-08T01:07:10.124Z,0.00
2019-02-08T01:08:10.035Z,0.00
2019-02-08T01:09:10.111Z,0.00
2019-02-08T01:10:10.167Z,0.00
2019-02-08T01:11:10.098Z,0.00
2019-02-08T01:12:10.064Z,0.00
2019-02-08T01:13:10.049Z,0.00
2019-02-08T01:14:09.975Z,0.00
2019-02-08T01:15:10.055Z,0.00
2019-02-08T01:16:10.087Z,0.00
2019-02-08T01:17:10.075Z,0.00
2019-02-08T01:18:10.009Z,0.00
2019-02-08T01:19:10.007Z,0.00
2019-02-08T01:20:10.013Z,0.00
2019-02-08T01:21:09.988Z,0.00
2019-02-08T01:22:10.007Z,0.00
2019-02-08T01:23:10.015Z,0.00
2019-02-08T01:24:09.959Z,0.00
2019-02-08T01:25:09.944Z,0.00
2019-02-08T01:26:09.829Z,0.00
2019-02-08T01:27:09.947Z,0.00
2019-02-08T01:28:09.902Z,0.00
2019-02-08T01:29:09.925Z,0.00
2019-02-08T01:30:09.902Z,0.00
2019-02-08T01:31:09.849Z,0.00
2019-02-08T01:32:09.841Z,0.00
2019-02-08T01:33:09.753Z,0.00
2019-02-08T01:34:09.859Z,0.00
2019-02-08T01:35:09.817Z,0.00
2019-02-08T01:36:09.795Z,0.00
2019-02-08T01:37:09.790Z,0.00
2019-02-08T01:38:09.776Z,0.00
2019-02-08T01:39:09.696Z,0.00
2019-02-08T01:40:09.807Z,0.00
2019-02-08T01:41:09.653Z,0.00
2019-02-08T01:42:09.748Z,0.00
2019-02-08T01:43:09.730Z,0.00
2019-02-08T01:44:09.713Z,0.00
2019-02-08T01:45:09.618Z,0.00
2019-02-08T01:46:09.634Z,0.00
2019-02-08T01:47:09.737Z,0.00
2019-02-08T01:48:09.588Z,0.00
2019-02-08T01:49:09.567Z,0.00
2019-02-08T01:50:09.659Z,0.00
2019-02-08T01:51:09.645Z,0.00
2019-02-08T01:52:09.578Z,0.00
2019-02-08T01:53:09.613Z,0.00
2019-02-08T01:54:09.604Z,0.00
2019-02-08T01:55:09.595Z,0.00
2019-02-08T01:56:09.488Z,0.00
2019-02-08T01:57:09.559Z,0.00
2019-02-08T01:58:09.637Z,0.00
2019-02-08T01:59:09.626Z,0.00
2019-02-08T02:00:10.089Z,0.00
2019-02-08T02:01:09.453Z,0.00
2019-02-08T02:02:09.525Z,0.00
2019-02-08T02:03:09.421Z,0.00
2019-02-08T02:04:09.512Z,0.00
2019-02-08T02:05:09.440Z,0.00
2019-02-08T02:06:09.498Z,0.00
2019-02-08T02:07:09.381Z,0.00
2019-02-08T02:08:09.406Z,0.00
2019-02-08T02:09:09.496Z,0.00
2019-02-08T02:10:09.456Z,0.00
2019-02-08T02:11:09.483Z,0.00
2019-02-08T02:12:09.418Z,0.00
2019-02-08T02:13:09.403Z,0.00
2019-02-08T02:14:09.400Z,0.00
2019-02-08T02:15:09.390Z,0.00
2019-02-08T02:16:09.292Z,0.00
2019-02-08T02:17:09.411Z,0.00
2019-02-08T02:18:09.261Z,0.00
2019-02-08T02:19:09.249Z,0.00
2019-02-08T02:20:09.227Z,0.00
2019-02-08T02:21:09.323Z,0.00
2019-02-08T02:22:09.309Z,0.00
2019-02-08T02:23:09.343Z,0.00
2019-02-08T02:24:09.347Z,0.00
2019-02-08T02:25:09.275Z,0.00
2019-02-08T02:26:09.158Z,0.00
2019-02-08T02:27:09.255Z,0.00
2019-02-08T02:28:09.249Z,0.00
2019-02-08T02:29:09.238Z,0.00
2019-02-08T02:30:09.178Z,0.00
2019-02-08T02:31:09.220Z,0.00
2019-02-08T02:32:09.226Z,0.00
2019-02-08T02:33:09.196Z,0.00
2019-02-08T02:34:09.188Z,0.00
2019-02-08T02:35:09.157Z,0.00
2019-02-08T02:36:09.165Z,0.00
2019-02-08T02:37:09.125Z,0.00
2019-02-08T02:38:09.120Z,0.00
2019-02-08T02:39:09.021Z,0.00
2019-02-08T02:40:08.995Z,0.00
2019-02-08T02:41:09.123Z,0.00
2019-02-08T02:42:09.076Z,0.00
2019-02-08T02:43:09.074Z,0.00
2019-02-08T02:44:09.068Z,0.00
2019-02-08T02:45:09.064Z,0.00
2019-02-08T02:46:08.937Z,0.00
2019-02-08T02:47:09.082Z,0.00
2019-02-08T02:48:09.030Z,0.00
2019-02-08T02:49:09.014Z,0.00
2019-02-08T02:50:08.912Z,0.00
2019-02-08T02:51:08.995Z,0.00
2019-02-08T02:52:08.982Z,0.00
2019-02-08T02:53:08.990Z,0.00
2019-02-08T02:54:09.003Z,0.00
2019-02-08T02:55:08.946Z,0.00
2019-02-08T02:56:08.942Z,0.00
2019-02-08T02:57:08.931Z,0.00
2019-02-08T02:58:08.906Z,0.00
2019-02-08T02:59:08.887Z,0.00
2019-02-08T03:00:08.948Z,0.00
2019-02-08T03:01:08.882Z,0.00
2019-02-08T03:02:08.870Z,0.00
2019-02-08T03:03:08.862Z,0.00
2019-02-08T03:04:08.753Z,0.00
2019-02-08T03:05:08.795Z,0.00
2019-02-08T03:06:09.857Z,0.00
2019-02-08T03:07:08.835Z,0.00
2019-02-08T03:08:08.801Z,0.00
2019-02-08T03:09:08.715Z,0.00
2019-02-08T03:10:08.782Z,0.00
2019-02-08T03:11:08.773Z,0.00
2019-02-08T03:12:08.810Z,0.00
2019-02-08T03:13:08.749Z,0.00
2019-02-08T03:14:08.751Z,0.00
2019-02-08T03:15:08.743Z,0.00
2019-02-08T03:16:08.718Z,0.00
2019-02-08T03:17:08.717Z,0.00
2019-02-08T03:18:08.754Z,0.00
2019-02-08T03:19:08.687Z,0.00
2019-02-08T03:20:08.663Z,0.00
2019-02-08T03:21:08.664Z,0.00
2019-02-08T03:22:08.545Z,0.00
2019-02-08T03:23:08.641Z,0.00
2019-02-08T03:24:13.002Z,0.00
2019-02-08T03:25:08.612Z,0.00
2019-02-08T03:26:08.604Z,0.00
2019-02-08T03:27:08.602Z,0.00
2019-02-08T03:28:08.589Z,0.00
2019-02-08T03:29:08.572Z,0.00
2019-02-08T03:30:08.525Z,0.00
2019-02-08T03:31:08.547Z,0.00
2019-02-08T03:32:08.553Z,0.00
2019-02-08T03:33:08.536Z,0.00
2019-02-08T03:34:08.559Z,0.00
2019-02-08T03:35:08.498Z,0.00
2019-02-08T03:36:08.560Z,0.00
2019-02-08T03:37:08.485Z,0.00
2019-02-08T03:38:08.496Z,0.00
2019-02-08T03:39:08.360Z,0.00
2019-02-08T03:40:08.448Z,0.00
2019-02-08T03:41:08.439Z,0.00
2019-02-08T03:42:08.457Z,0.00
2019-02-08T03:43:08.513Z,0.00
2019-02-08T03:44:08.391Z,0.00
2019-02-08T03:45:08.370Z,0.00
2019-02-08T03:46:08.373Z,0.00
2019-02-08T03:47:08.273Z,0.00
2019-02-08T03:48:08.422Z,0.00
2019-02-08T03:49:08.250Z,0.00
2019-02-08T03:50:08.322Z,0.00
2019-02-08T03:51:08.233Z,0.00
2019-02-08T03:52:08.226Z,0.00
2019-02-08T03:53:08.213Z,0.00
2019-02-08T03:54:08.246Z,0.00
2019-02-08T03:55:08.286Z,0.00
2019-02-08T03:56:08.286Z,0.00
2019-02-08T03:57:08.258Z,0.00
2019-02-08T03:58:08.251Z,0.00
2019-02-08T03:59:08.236Z,0.00
2019-02-08T04:00:08.262Z,0.00
2019-02-08T04:01:08.223Z,0.00
2019-02-08T04:02:08.210Z,0.00
2019-02-08T04:03:08.170Z,0.00
2019-02-08T04:04:08.092Z,0.00
2019-02-08T04:05:08.177Z,0.00
2019-02-08T04:06:08.200Z,0.00
2019-02-08T04:07:08.062Z,0.00
2019-02-08T04:08:08.140Z,0.00
2019-02-08T04:09:08.122Z,0.00
2019-02-08T04:10:08.145Z,0.00
2019-02-08T04:11:08.161Z,0.00
2019-02-08T04:12:08.100Z,0.00
2019-02-08T04:13:08.101Z,0.00
2019-02-08T04:14:08.089Z,0.00
2019-02-08T04:15:08.080Z,0.00
2019-02-08T04:16:08.046Z,0.00
2019-02-08T04:17:08.094Z,0.00
2019-02-08T04:18:07.951Z,0.00
2019-02-08T04:19:08.021Z,0.00
2019-02-08T04:20:08.009Z,0.00
2019-02-08T04:21:08.008Z,0.00
2019-02-08T04:22:07.997Z,0.00
2019-02-08T04:23:07.933Z,0.00
2019-02-08T04:24:07.864Z,0.00
2019-02-08T04:25:07.947Z,0.00
2019-02-08T04:26:07.938Z,0.00
2019-02-08T04:27:07.959Z,0.00
2019-02-08T04:28:07.915Z,0.00
2019-02-08T04:29:07.951Z,0.00
2019-02-08T04:30:07.948Z,0.00
2019-02-08T04:31:07.911Z,0.00
2019-02-08T04:32:07.884Z,0.00
2019-02-08T04:33:07.869Z,0.00
2019-02-08T04:34:07.877Z,0.00
2019-02-08T04:35:07.869Z,0.00
2019-02-08T04:36:07.880Z,0.00
2019-02-08T04:37:07.827Z,0.00
2019-02-08T04:38:07.809Z,0.00
2019-02-08T04:39:07.706Z,0.00
2019-02-08T04:40:07.795Z,0.00
2019-02-08T04:41:07.779Z,0.00
2019-02-08T04:42:07.730Z,0.00
2019-02-08T04:43:07.683Z,0.00
2019-02-08T04:44:07.752Z,0.00
2019-02-08T04:45:07.740Z,0.00
2019-02-08T04:46:07.718Z,0.00
2019-02-08T04:47:07.707Z,0.00
2019-02-08T04:48:07.781Z,0.00
2019-02-08T04:49:07.712Z,0.00
2019-02-08T04:50:07.674Z,0.00
2019-02-08T04:51:07.658Z,0.00
2019-02-08T04:52:07.649Z,0.00
2019-02-08T04:53:07.629Z,0.00
2019-02-08T04:54:07.641Z,0.00
2019-02-08T04:55:07.600Z,0.00
2019-02-08T04:56:07.591Z,0.00
2019-02-08T04:57:07.588Z,0.00
2019-02-08T04:58:07.568Z,0.00
2019-02-08T04:59:07.603Z,0.00
2019-02-08T05:00:07.458Z,0.00
2019-02-08T05:01:07.553Z,0.00
2019-02-08T05:02:07.554Z,0.00
2019-02-08T05:03:07.512Z,0.00
2019-02-08T05:04:07.556Z,0.00
2019-02-08T05:05:07.498Z,0.00
2019-02-08T05:06:07.417Z,0.00
2019-02-08T05:07:07.497Z,0.00
2019-02-08T05:08:07.495Z,0.00
2019-02-08T05:09:07.367Z,0.00
2019-02-08T05:10:07.411Z,0.00
2019-02-08T05:11:07.453Z,0.00
2019-02-08T05:12:07.458Z,0.00
2019-02-08T05:13:07.429Z,0.00
2019-02-08T05:14:07.411Z,0.00
2019-02-08T05:15:07.405Z,0.00
2019-02-08T05:16:07.452Z,0.00
2019-02-08T05:17:07.385Z,0.00
2019-02-08T05:18:07.348Z,0.00
2019-02-08T05:19:07.335Z,0.00
2019-02-08T05:20:07.343Z,0.00
2019-02-08T05:21:07.335Z,0.00
2019-02-08T05:22:07.382Z,0.00
2019-02-08T05:23:07.205Z,0.00
2019-02-08T05:24:07.283Z,0.00
2019-02-08T05:25:07.273Z,0.00
2019-02-08T05:26:07.186Z,0.00
2019-02-08T05:27:07.250Z,0.00
2019-02-08T05:28:07.299Z,0.00
2019-02-08T05:29:07.289Z,0.00
2019-02-08T05:30:07.142Z,0.00
2019-02-08T05:31:07.215Z,0.00
2019-02-08T05:32:07.205Z,0.00
2019-02-08T05:33:07.181Z,0.00
2019-02-08T05:34:07.200Z,0.00
2019-02-08T05:35:07.221Z,0.00
2019-02-08T05:36:07.174Z,0.00
2019-02-08T05:37:07.158Z,0.00
2019-02-08T05:38:07.135Z,0.00
2019-02-08T05:39:07.126Z,0.00
2019-02-08T05:40:07.131Z,0.00
2019-02-08T05:41:07.039Z,0.00
2019-02-08T05:42:07.085Z,0.00
2019-02-08T05:43:07.071Z,0.00
2019-02-08T05:44:07.085Z,0.00
2019-02-08T05:45:07.087Z,0.00
2019-02-08T05:46:07.101Z,0.00
2019-02-08T05:47:07.033Z,0.00
2019-02-08T05:48:07.025Z,0.00
2019-02-08T05:49:07.017Z,0.00
2019-02-08T05:50:07.019Z,0.00
2019-02-08T05:51:06.988Z,0.00
2019-02-08T05:52:06.945Z,0.00
2019-02-08T05:53:06.992Z,0.00
2019-02-08T05:54:06.899Z,0.00
2019-02-08T05:55:06.953Z,0.00
2019-02-08T05:56:06.847Z,0.00
2019-02-08T05:57:06.940Z,0.00
2019-02-08T05:58:06.874Z,0.00
2019-02-08T05:59:06.831Z,0.00
2019-02-08T06:00:06.904Z,0.00
2019-02-08T06:01:06.791Z,0.00
2019-02-08T06:02:06.864Z,0.00
2019-02-08T06:03:06.857Z,0.00
2019-02-08T06:04:06.819Z,0.00
2019-02-08T06:05:06.754Z,0.00
2019-02-08T06:06:06.817Z,0.00
2019-02-08T06:07:06.824Z,0.00
2019-02-08T06:08:06.829Z,0.00
2019-02-08T06:09:06.807Z,0.00
2019-02-08T06:10:06.872Z,0.00
2019-02-08T06:11:06.789Z,0.00
2019-02-08T06:12:06.806Z,4.00
2019-02-08T06:13:06.663Z,4.00
2019-02-08T06:14:06.758Z,4.00
2019-02-08T06:15:06.745Z,4.00
2019-02-08T06:16:06.764Z,4.00
2019-02-08T06:17:06.709Z,8.00
2019-02-08T06:18:06.613Z,4.00
2019-02-08T06:19:06.690Z,8.00
2019-02-08T06:20:06.684Z,12.00
2019-02-08T06:21:06.660Z,8.00
2019-02-08T06:22:06.676Z,12.00
2019-02-08T06:23:06.546Z,12.00
2019-02-08T06:24:06.648Z,12.00
2019-02-08T06:25:06.616Z,16.00
2019-02-08T06:26:06.537Z,16.00
2019-02-08T06:27:06.591Z,20.00
2019-02-08T06:28:06.684Z,20.00
2019-02-08T06:29:06.580Z,24.00
2019-02-08T06:30:06.478Z,24.00
2019-02-08T06:31:06.561Z,24.00
2019-02-08T06:32:06.561Z,24.00
2019-02-08T06:33:06.543Z,28.00
2019-02-08T06:34:06.440Z,32.00
2019-02-08T06:35:06.416Z,32.00
2019-02-08T06:36:06.497Z,36.00
2019-02-08T06:37:06.500Z,40.00
2019-02-08T06:38:06.467Z,40.00
2019-02-08T06:39:06.411Z,44.00
2019-02-08T06:40:06.459Z,48.00
2019-02-08T06:41:06.429Z,52.00
2019-02-08T06:42:06.340Z,52.00
2019-02-08T06:43:06.418Z,56.00
2019-02-08T06:44:06.308Z,60.00
2019-02-08T06:45:06.385Z,64.00
2019-02-08T06:46:06.378Z,68.00
2019-02-08T06:47:06.268Z,72.00
2019-02-08T06:48:06.268Z,76.00
2019-02-08T06:49:06.275Z,88.00
2019-02-08T06:50:06.299Z,92.00
2019-02-08T06:51:06.240Z,100.00
2019-02-08T06:52:06.230Z,112.00
2019-02-08T06:53:06.312Z,124.00
2019-02-08T06:54:06.191Z,136.00
2019-02-08T06:55:10.946Z,148.00
2019-02-08T06:56:07.238Z,160.00
2019-02-08T06:57:06.177Z,176.00
2019-02-08T06:58:06.162Z,184.00
2019-02-08T06:59:06.145Z,196.00
2019-02-08T07:00:06.147Z,208.00
2019-02-08T07:01:06.146Z,220.00
2019-02-08T07:02:06.230Z,224.00
2019-02-08T07:03:06.244Z,228.00
2019-02-08T07:04:06.168Z,232.00
2019-02-08T07:05:06.204Z,232.00
2019-02-08T07:06:06.057Z,236.00
2019-02-08T07:07:06.131Z,240.00
2019-02-08T07:08:06.049Z,248.00
2019-02-08T07:09:06.060Z,252.00
2019-02-08T07:10:06.111Z,256.00
2019-02-08T07:11:06.143Z,264.00
2019-02-08T07:12:06.006Z,264.00
2019-02-08T07:13:05.982Z,272.00
2019-02-08T07:14:06.022Z,284.00
2019-02-08T07:15:06.025Z,296.00
2019-02-08T07:16:05.961Z,312.00
2019-02-08T07:17:06.040Z,324.00
2019-02-08T07:18:06.031Z,336.00
2019-02-08T07:19:06.028Z,360.00
2019-02-08T07:20:06.038Z,380.00
2019-02-08T07:21:05.913Z,412.00
2019-02-08T07:22:05.902Z,432.00
2019-02-08T07:23:05.879Z,452.00
2019-02-08T07:24:05.870Z,464.00
2019-02-08T07:25:05.869Z,468.00
2019-02-08T07:26:05.872Z,468.00
2019-02-08T07:27:05.820Z,496.00
2019-02-08T07:28:05.832Z,488.00
2019-02-08T07:29:05.937Z,480.00
2019-02-08T07:30:05.856Z,476.00
2019-02-08T07:31:05.806Z,456.00
2019-02-08T07:32:05.776Z,444.00
2019-02-08T07:33:05.781Z,444.00
2019-02-08T07:34:05.759Z,456.00
2019-02-08T07:35:05.741Z,484.00
2019-02-08T07:36:05.751Z,520.00
2019-02-08T07:37:05.772Z,556.00
2019-02-08T07:38:05.805Z,596.00
2019-02-08T07:39:05.787Z,604.00
2019-02-08T07:40:05.728Z,592.00
2019-02-08T07:41:05.688Z,572.00
2019-02-08T07:42:05.677Z,560.00
2019-02-08T07:43:05.720Z,552.00
2019-02-08T07:44:06.342Z,556.00
2019-02-08T07:45:05.639Z,572.00
2019-02-08T07:46:05.639Z,592.00
2019-02-08T07:47:06.705Z,612.00
2019-02-08T07:48:05.602Z,628.00
2019-02-08T07:49:05.622Z,664.00
2019-02-08T07:50:05.595Z,688.00
2019-02-08T07:51:05.578Z,720.00
2019-02-08T07:52:05.550Z,748.00
2019-02-08T07:53:05.537Z,1336.00
2019-02-08T07:54:05.563Z,1440.00
2019-02-08T07:55:05.530Z,1552.00
2019-02-08T07:56:05.528Z,1636.00
2019-02-08T07:57:05.606Z,1676.00
2019-02-08T07:58:05.595Z,1632.00
2019-02-08T07:59:05.625Z,1708.00
2019-02-08T08:00:05.598Z,832.00
2019-02-08T08:01:05.609Z,1712.00
2019-02-08T08:02:05.578Z,1692.00
2019-02-08T08:03:05.561Z,1716.00
2019-02-08T08:04:05.440Z,1728.00
2019-02-08T08:05:05.459Z,1728.00
2019-02-08T08:06:05.404Z,1656.00
2019-02-08T08:07:05.477Z,1724.00
2019-02-08T08:08:05.376Z,1720.00
2019-02-08T08:09:05.415Z,1708.00
2019-02-08T08:10:05.346Z,1708.00
2019-02-08T08:11:05.522Z,1688.00
2019-02-08T08:12:05.347Z,1720.00
2019-02-08T08:13:05.335Z,1724.00
2019-02-08T08:14:05.502Z,1724.00
2019-02-08T08:15:05.351Z,1724.00
2019-02-08T08:16:05.290Z,1724.00
2019-02-08T08:17:05.384Z,1708.00
2019-02-08T08:18:05.268Z,1748.00
2019-02-08T08:19:05.247Z,1760.00
2019-02-08T08:20:05.314Z,1756.00
2019-02-08T08:21:05.250Z,1756.00
2019-02-08T08:22:05.228Z,1760.00
2019-02-08T08:23:05.329Z,1756.00
2019-02-08T08:24:05.285Z,1772.00
2019-02-08T08:25:05.189Z,1772.00
2019-02-08T08:26:05.376Z,1776.00
2019-02-08T08:27:05.184Z,1780.00
2019-02-08T08:28:05.160Z,1788.00
2019-02-08T08:29:05.254Z,1800.00
2019-02-08T08:30:05.216Z,1808.00
2019-02-08T08:31:05.135Z,1816.00
2019-02-08T08:32:05.148Z,1828.00
2019-02-08T08:33:05.138Z,1836.00
2019-02-08T08:34:05.083Z,1848.00
2019-02-08T08:35:05.088Z,1856.00
2019-02-08T08:36:05.081Z,1864.00
2019-02-08T08:37:05.140Z,1756.00
2019-02-08T08:38:05.081Z,1748.00
2019-02-08T08:39:05.115Z,1768.00
2019-02-08T08:40:05.025Z,1788.00
2019-02-08T08:41:05.119Z,1932.00
2019-02-08T08:42:05.106Z,1892.00
2019-02-08T08:43:05.078Z,1876.00
2019-02-08T08:44:05.115Z,1880.00
2019-02-08T08:45:05.102Z,1928.00
2019-02-08T08:46:05.031Z,1904.00
2019-02-08T08:47:05.046Z,1984.00
2019-02-08T08:48:05.032Z,2036.00
2019-02-08T08:49:05.014Z,2032.00
2019-02-08T08:50:04.934Z,2032.00
2019-02-08T08:51:04.897Z,2048.00
2019-02-08T08:52:04.889Z,2060.00
2019-02-08T08:53:04.995Z,1920.00
2019-02-08T08:54:04.867Z,1928.00
2019-02-08T08:55:04.862Z,1940.00
2019-02-08T08:56:04.872Z,2016.00
2019-02-08T08:57:04.944Z,2020.00
2019-02-08T08:58:04.820Z,2048.00
2019-02-08T08:59:04.807Z,2060.00
2019-02-08T09:00:04.803Z,2080.00
2019-02-08T09:01:04.812Z,2088.00
2019-02-08T09:02:04.822Z,2104.00
2019-02-08T09:03:04.779Z,2116.00
2019-02-08T09:04:04.767Z,2124.00
2019-02-08T09:05:04.758Z,2136.00
2019-02-08T09:06:08.601Z,2152.00
2019-02-08T09:07:04.718Z,2160.00
2019-02-08T09:08:04.772Z,2176.00
2019-02-08T09:09:04.701Z,2180.00
2019-02-08T09:10:04.697Z,2200.00
2019-02-08T09:11:04.666Z,2204.00
2019-02-08T09:12:04.660Z,2220.00
2019-02-08T09:13:04.690Z,2240.00
2019-02-08T09:14:04.697Z,2272.00
2019-02-08T09:15:04.639Z,2276.00
2019-02-08T09:16:04.618Z,2280.00
2019-02-08T09:17:04.607Z,2296.00
2019-02-08T09:18:04.611Z,2292.00
2019-02-08T09:19:04.600Z,2332.00
2019-02-08T09:20:04.610Z,2344.00
2019-02-08T09:21:04.577Z,2348.00
2019-02-08T09:22:04.558Z,2360.00
2019-02-08T09:23:04.537Z,2380.00
2019-02-08T09:24:04.531Z,2384.00
2019-02-08T09:25:04.848Z,2392.00
2019-02-08T09:26:04.517Z,2404.00
2019-02-08T09:27:04.497Z,2392.00
2019-02-08T09:28:04.481Z,2416.00
2019-02-08T09:29:04.482Z,2416.00
2019-02-08T09:30:04.483Z,2432.00
2019-02-08T09:31:04.506Z,2444.00
2019-02-08T09:32:04.447Z,2456.00
2019-02-08T09:33:04.439Z,2472.00
2019-02-08T09:34:04.409Z,2484.00
2019-02-08T09:35:04.420Z,2496.00
2019-02-08T09:36:04.411Z,2488.00
2019-02-08T09:37:04.461Z,2476.00
2019-02-08T09:38:04.378Z,2292.00
2019-02-08T09:39:04.377Z,2332.00
2019-02-08T09:40:04.364Z,2328.00
2019-02-08T09:41:04.331Z,2500.00
2019-02-08T09:42:04.319Z,2532.00
2019-02-08T09:43:04.346Z,2548.00
2019-02-08T09:44:04.349Z,2544.00
2019-02-08T09:45:04.298Z,2564.00
2019-02-08T09:46:04.274Z,2588.00
2019-02-08T09:47:04.284Z,2612.00
2019-02-08T09:48:04.276Z,2624.00
2019-02-08T09:49:04.257Z,2644.00
2019-02-08T09:50:04.283Z,2656.00
2019-02-08T09:51:04.242Z,2680.00
2019-02-08T09:52:04.209Z,2700.00
2019-02-08T09:53:04.198Z,2712.00
2019-02-08T09:54:04.185Z,2736.00
2019-02-08T09:55:04.711Z,2756.00
2019-02-08T09:56:04.243Z,2796.00
2019-02-08T09:57:04.177Z,2824.00
2019-02-08T09:58:04.282Z,2832.00
2019-02-08T09:59:04.153Z,2876.00
2019-02-08T10:00:04.217Z,2912.00
2019-02-08T10:01:04.506Z,2952.00
2019-02-08T10:02:04.132Z,2984.00
2019-02-08T10:03:04.090Z,3064.00
2019-02-08T10:04:04.075Z,3176.00
2019-02-08T10:05:04.069Z,3284.00
2019-02-08T10:06:04.055Z,3356.00
2019-02-08T10:07:04.102Z,3420.00
2019-02-08T10:08:04.027Z,3520.00
2019-02-08T10:09:04.021Z,3576.00
2019-02-08T10:10:04.008Z,3596.00
2019-02-08T10:11:04.023Z,3644.00
2019-02-08T10:12:03.989Z,3684.00
2019-02-08T10:13:04.009Z,3724.00
2019-02-08T10:14:03.977Z,3804.00
2019-02-08T10:15:04.024Z,3932.00
2019-02-08T10:16:04.009Z,4116.00
2019-02-08T10:17:03.939Z,4444.00
2019-02-08T10:18:03.935Z,12808.00
2019-02-08T10:19:03.920Z,32768.00
2019-02-08T10:20:03.918Z,39808.00
2019-02-08T10:21:03.950Z,39072.00
2019-02-08T10:22:03.914Z,38496.00
2019-02-08T10:23:03.875Z,38624.00
2019-02-08T10:24:03.876Z,37824.00
2019-02-08T10:25:04.405Z,37856.00
2019-02-08T10:26:05.453Z,39232.00
2019-02-08T10:27:03.870Z,40960.00
2019-02-08T10:28:03.825Z,41824.00
2019-02-08T10:29:03.819Z,42240.00
2019-02-08T10:30:03.801Z,42560.00
2019-02-08T10:31:03.778Z,42560.00
2019-02-08T10:32:03.826Z,41216.00
2019-02-08T10:33:03.776Z,41088.00
2019-02-08T10:34:03.759Z,40384.00
2019-02-08T10:35:03.737Z,39200.00
2019-02-08T10:36:03.735Z,38720.00
2019-02-08T10:37:03.751Z,37824.00
2019-02-08T10:38:03.751Z,35776.00
2019-02-08T10:39:03.703Z,37760.00
2019-02-08T10:40:03.674Z,40192.00
2019-02-08T10:41:03.664Z,40640.00
2019-02-08T10:42:03.676Z,40352.00
2019-02-08T10:43:03.667Z,40224.00
2019-02-08T10:44:03.697Z,39200.00
2019-02-08T10:45:03.641Z,37696.00
2019-02-08T10:46:03.627Z,37856.00
2019-02-08T10:47:03.617Z,39232.00
2019-02-08T10:48:03.595Z,38944.00
2019-02-08T10:49:03.613Z,39008.00
2019-02-08T10:50:03.632Z,39360.00
2019-02-08T10:51:03.586Z,39232.00
2019-02-08T10:52:03.556Z,39840.00
2019-02-08T10:53:03.558Z,40544.00
2019-02-08T10:54:03.539Z,40000.00
2019-02-08T10:55:03.518Z,37696.00
2019-02-08T10:56:03.589Z,38048.00
2019-02-08T10:57:03.542Z,38496.00
2019-02-08T10:58:03.503Z,38432.00
2019-02-08T10:59:03.477Z,37216.00
2019-02-08T11:00:03.474Z,36224.00
2019-02-08T11:01:03.476Z,35776.00
2019-02-08T11:02:03.491Z,37312.00
2019-02-08T11:03:03.441Z,38016.00
2019-02-08T11:04:03.445Z,37888.00
2019-02-08T11:05:03.406Z,37792.00
2019-02-08T11:06:03.432Z,37952.00
2019-02-08T11:07:03.392Z,38624.00
2019-02-08T11:08:03.426Z,38880.00
2019-02-08T11:09:03.370Z,39488.00
2019-02-08T11:10:03.370Z,39648.00
2019-02-08T11:11:03.341Z,38752.00
2019-02-08T11:12:03.350Z,36128.00
2019-02-08T11:13:05.728Z,32640.00
2019-02-08T11:14:06.427Z,32608.00
2019-02-08T11:15:03.302Z,35744.00
2019-02-08T11:16:03.304Z,36576.00
2019-02-08T11:17:03.303Z,34848.00
2019-02-08T11:18:07.603Z,34784.00
2019-02-08T11:19:04.467Z,36928.00
2019-02-08T11:20:03.435Z,37664.00
2019-02-08T11:21:03.292Z,38048.00
2019-02-08T11:22:03.249Z,38144.00
2019-02-08T11:23:03.213Z,36384.00
2019-02-08T11:24:03.230Z,36800.00
2019-02-08T11:25:03.188Z,38080.00
2019-02-08T11:26:03.190Z,38432.00
2019-02-08T11:27:03.240Z,38368.00
2019-02-08T11:28:03.174Z,37792.00
2019-02-08T11:29:03.190Z,36960.00
2019-02-08T11:30:03.136Z,37632.00
2019-02-08T11:31:03.157Z,37824.00
2019-02-08T11:32:03.133Z,36320.00
2019-02-08T11:33:03.158Z,35360.00
2019-02-08T11:34:03.110Z,34400.00
2019-02-08T11:35:03.110Z,35136.00
2019-02-08T11:36:03.076Z,39744.00
2019-02-08T11:37:03.073Z,39968.00
2019-02-08T11:38:03.073Z,40480.00
2019-02-08T11:39:03.102Z,40608.00
2019-02-08T11:40:03.062Z,39840.00
2019-02-08T11:41:03.029Z,39904.00
2019-02-08T11:42:03.031Z,40960.00
2019-02-08T11:43:02.995Z,41152.00
2019-02-08T11:44:03.010Z,41792.00
2019-02-08T11:45:03.035Z,40544.00
2019-02-08T11:46:02.991Z,38624.00
2019-02-08T11:47:02.962Z,38624.00
2019-02-08T11:48:02.959Z,39040.00
2019-02-08T11:49:02.940Z,38176.00
2019-02-08T11:50:03.015Z,37952.00
2019-02-08T11:51:03.228Z,37440.00
2019-02-08T11:52:03.014Z,36544.00
2019-02-08T11:53:03.007Z,36352.00
2019-02-08T11:54:02.991Z,36960.00
2019-02-08T11:55:02.979Z,36768.00
2019-02-08T11:56:02.977Z,36192.00
2019-02-08T11:57:03.026Z,36256.00
2019-02-08T11:58:02.930Z,36544.00
2019-02-08T11:59:02.841Z,36288.00
2019-02-08T12:00:02.933Z,36192.00
2019-02-08T12:01:02.916Z,36544.00
2019-02-08T12:02:02.899Z,37408.00
2019-02-08T12:03:02.930Z,37184.00
2019-02-08T12:04:02.886Z,37472.00
2019-02-08T12:05:02.871Z,37216.00
2019-02-08T12:06:02.867Z,37984.00
2019-02-08T12:07:02.854Z,37120.00
2019-02-08T12:08:03.063Z,36512.00
2019-02-08T12:09:02.857Z,36864.00
2019-02-08T12:10:02.814Z,37152.00
2019-02-08T12:11:02.819Z,37344.00
2019-02-08T12:12:03.088Z,38240.00
2019-02-08T12:13:02.802Z,38944.00
2019-02-08T12:14:02.721Z,38656.00
2019-02-08T12:15:02.673Z,38272.00
2019-02-08T12:16:02.684Z,38112.00
2019-02-08T12:17:02.636Z,37824.00
2019-02-08T12:18:02.647Z,37728.00
2019-02-08T12:19:03.309Z,38912.00
2019-02-08T12:20:02.658Z,38848.00
2019-02-08T12:21:02.606Z,39008.00
2019-02-08T12:22:02.608Z,40064.00
2019-02-08T12:23:02.593Z,39936.00
2019-02-08T12:24:02.595Z,39456.00
2019-02-08T12:25:02.567Z,40480.00
2019-02-08T12:26:02.636Z,39936.00
2019-02-08T12:27:02.554Z,39136.00
2019-02-08T12:28:02.527Z,40192.00
2019-02-08T12:29:02.530Z,40448.00
2019-02-08T12:30:02.530Z,39840.00
2019-02-08T12:31:02.508Z,39168.00
2019-02-08T12:32:02.536Z,39424.00
2019-02-08T12:33:02.501Z,38880.00
2019-02-08T12:34:02.470Z,39008.00
2019-02-08T12:35:02.493Z,38560.00
2019-02-08T12:36:02.447Z,38016.00
2019-02-08T12:37:02.448Z,38208.00
2019-02-08T12:38:02.479Z,38432.00
2019-02-08T12:39:02.407Z,37568.00